This is the latest recevied weather packets stored in our database for station/object W0AKY-13. If no packets are shown the sender has not sent any weather packets the latest 10 day(s).
| Time | Temp. | Humidity | Pressure | Rain* | Wind** | Luminosity | Snow |
|---|---|---|---|---|---|---|---|
| 1788568634 | 31.67° C | 69% | 1013.2 hPa | 0 mm | - | 5 W/m² | - |
| 1788568330 | 32.22° C | 69% | 1013.3 hPa | 0 mm | - | 5 W/m² | - |
| 1788568026 | 32.22° C | 66% | 1012.9 hPa | 0 mm | - | 7 W/m² | - |
| 1788567725 | 32.22° C | 67% | 1013.1 hPa | 0 mm | - | 11 W/m² | - |
| 1788567421 | 32.78° C | 65% | 1013.3 hPa | 0 mm | - | 13 W/m² | - |
| 1788567120 | 32.78° C | 64% | 1013.2 hPa | 0 mm | - | 15 W/m² | - |
| 1788566815 | 32.78° C | 63% | 1013.2 hPa | 0 mm | - | 16 W/m² | - |
| 1788566511 | 33.33° C | 63% | 1013.2 hPa | 0 mm | - | 18 W/m² | - |
| 1788566210 | 33.33° C | 62% | 1013.2 hPa | 0 mm | - | 20 W/m² | - |
| 1788565910 | 33.89° C | 61% | 1013.2 hPa | 0 mm | - | 21 W/m² | - |
| 1788565606 | 33.89° C | 60% | 1013.1 hPa | 0 mm | - | 23 W/m² | - |
| 1788565301 | 33.89° C | 60% | 1013.2 hPa | 0 mm | - | 25 W/m² | - |
| 1788564997 | 33.89° C | 61% | 1013.3 hPa | 0 mm | - | 27 W/m² | - |
| 1788564693 | 34.44° C | 59% | 1013.1 hPa | 0 mm | - | 29 W/m² | - |
| 1788564389 | 34.44° C | 58% | 1013.1 hPa | 0 mm | - | 31 W/m² | - |
| 1788564085 | 35° C | 58% | 1013.3 hPa | 0 mm | - | 34 W/m² | - |
| 1788563780 | 35° C | 56% | 1013.3 hPa | 0 mm | - | 37 W/m² | - |
| 1788563475 | 35.56° C | 55% | 1013.3 hPa | 0 mm | - | 40 W/m² | - |
| 1788563174 | 36.11° C | 56% | 1013.3 hPa | 0 mm | - | 50 W/m² | - |
| 1788562870 | 36.11° C | 54% | 1013.4 hPa | 0 mm | - | 66 W/m² | - |
| 1788562567 | 36.11° C | 53% | 1013.2 hPa | 0 mm | - | 130 W/m² | - |
| 1788562262 | 36.11° C | 55% | 1013.3 hPa | 0 mm | - | 140 W/m² | - |
| 1788561957 | 36.67° C | 53% | 1012.9 hPa | 0 mm | - | 150 W/m² | - |
| 1788561652 | 36.67° C | 54% | 1013.1 hPa | 0 mm | - | 160 W/m² | - |
| 1788561351 | 37.22° C | 53% | 1013.1 hPa | 0 mm | - | 172 W/m² | - |
* Rain latest hour (hover to see other rain measurements)
** Current wind speed in m/s (hover to see current wind gust speed)